Summit Argo, IL (60501)

03:49 PM CST del 16 Gennaio 2017 (GMT -0600)
Lyons Police Department | | Change Station
Avvisi attivi: Marine Fog Advisory

Alt. 615 ft 41.81 °N, 87.83 °W | Updated 16 seconds ago

Pioggia
Pioggia
36.8 °F
Sembra 37 °F
N
0.0
Vento Variabile Vento da Est
Gusts 4.0 mph

Oggi
Massima -- | Minima -- °F
--% Possibilità di precip.
Ieri
Massima -- | Minima -- °F
Precip. -- in
Pressione 30.11 in
Visibilità 1.0 miglia
Nuvole Coperto 400 ft
Raffreddamento del vento 37 °F
Punto di rugiada 36 °F
Umidità 96%
Piovosità 0.10 in
Spessore del manto nevoso Non disponibile.
7:15 AM 4:47 PM
Gobba a levante, 78% visible
METAR KMDW 162053Z 08006KT 1SM R31C/P6000FT -RA BR OVC004 02/02 A3008 RMK AO2 SLP195 P0009 60020 T00220017 56030
Pressione 30.11 in
Visibilità 1.0 miglia
Nuvole Coperto 400 ft
Raffreddamento del vento 37 °F
Punto di rugiada 36 °F
Umidità 96%
Piovosità 0.10 in
Spessore del manto nevoso Non disponibile.
7:15 AM 4:47 PM
Gobba a levante, 78% visible
METAR KMDW 162053Z 08006KT 1SM R31C/P6000FT -RA BR OVC004 02/02 A3008 RMK AO2 SLP195 P0009 60020 T00220017 56030

Get Your Daily Forecast Email!

Thanks for signing up!

Be on the lookout for a verification email in your inbox.

You'll start receiving the daily forecast at 8 AM.

×

10-Day Weather Forecast

Almanac

Astronomia

Jan. 16, 2017 Alba Tramonto
Ora attuale
Crepuscolo civile
Crepuscolo nautico
Crepuscolo astronomico
Luna
Estensione della luce visibile
Lunghezza del giorno
Tomorrow will be .
, % of the Moon is Illuminated

Gli estremi di oggi

State Highs State Lows

Community

WunderPhotos

Upload Photos

1,962,540 foto caricate!

WunderBlog® & News

Nearby

Qualità dell'aria

  Qualità dell'aria Indice AQ Inquinante
Not available.

Profondità neve

Stazione Profondità Altitudine

Attività sismica

Città  Distanza Mag. Data & Ora
Minimo Magnitudo Mostrato è 2.5.

Temperature delle acque costiere

Località Temperatura

Stations

Stazioni meteo nelle vicinanze

Ubicazione della stazione Temp. Raffreddamento del vento Punto di rugiada Umidità Vento Precip. Alt. Aggiornato Tipo
                   

Watches & Warnings

Marine Fog Advisory
Issued: 14:52 CST Jan. 16, 2017 – National Weather Service

... Dense fog advisory in effect until 9 am CST Tuesday...

The National Weather Service in Chicago has issued a dense fog
advisory... which is in effect until 9 am CST Tuesday.

* Visibility... less than 1/2 mile.

Precautionary/preparedness actions...

A dense fog advisory means visibilities will frequently be
reduced to less than one mile. Inexperienced mariners...
especially those operating smaller vessels should avoid
navigating in these conditions.




Jee